sensor_id;sensor_type;location;lat;lon;timestamp;P1;durP1;ratioP1;P2;durP2;ratioP2
6531;SDS011;3299;42.004;24.868;2023-04-08T00:01:06;7.20;;;6.50;;
6531;SDS011;3299;42.004;24.868;2023-04-08T00:03:32;7.90;;;7.03;;
6531;SDS011;3299;42.004;24.868;2023-04-08T00:05:57;7.82;;;7.03;;
6531;SDS011;3299;42.004;24.868;2023-04-08T00:08:24;8.90;;;6.97;;
6531;SDS011;3299;42.004;24.868;2023-04-08T00:10:50;8.27;;;7.03;;
6531;SDS011;3299;42.004;24.868;2023-04-08T00:13:15;9.38;;;7.47;;
6531;SDS011;3299;42.004;24.868;2023-04-08T00:15:41;9.68;;;6.95;;
6531;SDS011;3299;42.004;24.868;2023-04-08T00:18:06;8.30;;;7.50;;
6531;SDS011;3299;42.004;24.868;2023-04-08T00:20:32;7.72;;;7.03;;
6531;SDS011;3299;42.004;24.868;2023-04-08T00:22:57;7.93;;;6.88;;
6531;SDS011;3299;42.004;24.868;2023-04-08T00:25:23;7.90;;;6.75;;
6531;SDS011;3299;42.004;24.868;2023-04-08T00:27:48;8.18;;;7.25;;
6531;SDS011;3299;42.004;24.868;2023-04-08T00:30:14;8.60;;;7.00;;
6531;SDS011;3299;42.004;24.868;2023-04-08T00:32:40;8.02;;;7.03;;
6531;SDS011;3299;42.004;24.868;2023-04-08T00:35:05;7.70;;;6.78;;
6531;SDS011;3299;42.004;24.868;2023-04-08T00:37:31;8.27;;;7.45;;
6531;SDS011;3299;42.004;24.868;2023-04-08T00:39:57;7.50;;;6.70;;
6531;SDS011;3299;42.004;24.868;2023-04-08T00:42:22;7.60;;;6.90;;
6531;SDS011;3299;42.004;24.868;2023-04-08T00:44:48;8.68;;;7.78;;
6531;SDS011;3299;42.004;24.868;2023-04-08T00:47:13;8.85;;;6.72;;
6531;SDS011;3299;42.004;24.868;2023-04-08T00:49:40;9.63;;;7.43;;
6531;SDS011;3299;42.004;24.868;2023-04-08T00:52:06;7.65;;;6.85;;
6531;SDS011;3299;42.004;24.868;2023-04-08T00:54:32;10.52;;;8.02;;
6531;SDS011;3299;42.004;24.868;2023-04-08T00:56:57;8.02;;;7.20;;
6531;SDS011;3299;42.004;24.868;2023-04-08T00:59:27;10.35;;;7.13;;
6531;SDS011;3299;42.004;24.868;2023-04-08T01:01:56;9.07;;;6.63;;
6531;SDS011;3299;42.004;24.868;2023-04-08T01:07:33;9.48;;;7.25;;
6531;SDS011;3299;42.004;24.868;2023-04-08T01:10:02;7.82;;;6.78;;
6531;SDS011;3299;42.004;24.868;2023-04-08T01:12:32;10.50;;;7.65;;
6531;SDS011;3299;42.004;24.868;2023-04-08T01:15:05;10.48;;;8.50;;
6531;SDS011;3299;42.004;24.868;2023-04-08T01:17:32;10.32;;;8.75;;
6531;SDS011;3299;42.004;24.868;2023-04-08T01:20:00;12.10;;;9.88;;
6531;SDS011;3299;42.004;24.868;2023-04-08T01:22:51;15.20;;;9.90;;
6531;SDS011;3299;42.004;24.868;2023-04-08T01:25:23;11.50;;;9.52;;
6531;SDS011;3299;42.004;24.868;2023-04-08T01:27:53;11.32;;;9.43;;
6531;SDS011;3299;42.004;24.868;2023-04-08T01:30:21;11.98;;;10.43;;
6531;SDS011;3299;42.004;24.868;2023-04-08T01:32:48;11.80;;;10.40;;
6531;SDS011;3299;42.004;24.868;2023-04-08T01:35:16;12.95;;;9.68;;
6531;SDS011;3299;42.004;24.868;2023-04-08T01:37:42;12.73;;;9.98;;
6531;SDS011;3299;42.004;24.868;2023-04-08T01:40:09;13.18;;;10.50;;
6531;SDS011;3299;42.004;24.868;2023-04-08T01:42:35;13.32;;;10.38;;
6531;SDS011;3299;42.004;24.868;2023-04-08T01:45:02;13.43;;;10.75;;
6531;SDS011;3299;42.004;24.868;2023-04-08T01:47:28;12.18;;;10.88;;
6531;SDS011;3299;42.004;24.868;2023-04-08T01:49:54;10.18;;;8.98;;
6531;SDS011;3299;42.004;24.868;2023-04-08T01:52:20;11.80;;;8.77;;
6531;SDS011;3299;42.004;24.868;2023-04-08T01:54:47;11.70;;;8.57;;
6531;SDS011;3299;42.004;24.868;2023-04-08T01:57:14;12.45;;;9.30;;
6531;SDS011;3299;42.004;24.868;2023-04-08T01:59:47;11.45;;;9.23;;
6531;SDS011;3299;42.004;24.868;2023-04-08T02:02:15;11.15;;;9.45;;
6531;SDS011;3299;42.004;24.868;2023-04-08T02:04:44;11.25;;;8.60;;
6531;SDS011;3299;42.004;24.868;2023-04-08T02:07:10;11.00;;;8.23;;
6531;SDS011;3299;42.004;24.868;2023-04-08T02:09:36;13.48;;;8.00;;
6531;SDS011;3299;42.004;24.868;2023-04-08T02:12:01;7.63;;;6.82;;
6531;SDS011;3299;42.004;24.868;2023-04-08T02:14:27;11.02;;;7.95;;
6531;SDS011;3299;42.004;24.868;2023-04-08T02:16:53;8.57;;;7.32;;
6531;SDS011;3299;42.004;24.868;2023-04-08T02:22:04;12.70;;;10.68;;
6531;SDS011;3299;42.004;24.868;2023-04-08T02:24:33;10.30;;;9.18;;
6531;SDS011;3299;42.004;24.868;2023-04-08T02:27:01;15.35;;;11.55;;
6531;SDS011;3299;42.004;24.868;2023-04-08T02:29:28;15.82;;;13.55;;
6531;SDS011;3299;42.004;24.868;2023-04-08T02:31:56;19.05;;;13.45;;
6531;SDS011;3299;42.004;24.868;2023-04-08T02:34:22;16.88;;;13.65;;
6531;SDS011;3299;42.004;24.868;2023-04-08T02:36:49;20.73;;;14.00;;
6531;SDS011;3299;42.004;24.868;2023-04-08T02:39:15;21.35;;;13.23;;
6531;SDS011;3299;42.004;24.868;2023-04-08T02:41:41;16.60;;;14.00;;
6531;SDS011;3299;42.004;24.868;2023-04-08T02:44:06;17.33;;;13.77;;
6531;SDS011;3299;42.004;24.868;2023-04-08T02:46:32;62.55;;;27.58;;
6531;SDS011;3299;42.004;24.868;2023-04-08T02:48:57;20.98;;;14.50;;
6531;SDS011;3299;42.004;24.868;2023-04-08T02:51:23;16.95;;;12.13;;
6531;SDS011;3299;42.004;24.868;2023-04-08T02:53:48;15.10;;;11.82;;
6531;SDS011;3299;42.004;24.868;2023-04-08T02:56:14;14.90;;;11.60;;
6531;SDS011;3299;42.004;24.868;2023-04-08T02:58:39;14.13;;;12.32;;
6531;SDS011;3299;42.004;24.868;2023-04-08T03:01:05;13.35;;;11.60;;
6531;SDS011;3299;42.004;24.868;2023-04-08T03:03:31;13.68;;;11.43;;
6531;SDS011;3299;42.004;24.868;2023-04-08T03:05:56;14.02;;;11.38;;
6531;SDS011;3299;42.004;24.868;2023-04-08T03:08:22;12.27;;;10.45;;
6531;SDS011;3299;42.004;24.868;2023-04-08T03:10:48;16.38;;;11.43;;
6531;SDS011;3299;42.004;24.868;2023-04-08T03:13:14;14.85;;;11.68;;
6531;SDS011;3299;42.004;24.868;2023-04-08T03:15:40;14.20;;;11.25;;
6531;SDS011;3299;42.004;24.868;2023-04-08T03:18:05;13.77;;;12.18;;
6531;SDS011;3299;42.004;24.868;2023-04-08T03:20:31;15.02;;;11.25;;
6531;SDS011;3299;42.004;24.868;2023-04-08T03:22:56;15.02;;;11.50;;
6531;SDS011;3299;42.004;24.868;2023-04-08T03:25:21;13.48;;;10.50;;
6531;SDS011;3299;42.004;24.868;2023-04-08T03:27:47;13.02;;;10.73;;
6531;SDS011;3299;42.004;24.868;2023-04-08T03:30:12;14.40;;;11.20;;
6531;SDS011;3299;42.004;24.868;2023-04-08T03:32:38;11.63;;;10.18;;
6531;SDS011;3299;42.004;24.868;2023-04-08T03:35:04;14.35;;;11.20;;
6531;SDS011;3299;42.004;24.868;2023-04-08T03:37:30;14.23;;;11.10;;
6531;SDS011;3299;42.004;24.868;2023-04-08T03:39:55;12.10;;;10.05;;
6531;SDS011;3299;42.004;24.868;2023-04-08T03:42:21;12.48;;;9.48;;
6531;SDS011;3299;42.004;24.868;2023-04-08T03:44:46;11.77;;;9.63;;
6531;SDS011;3299;42.004;24.868;2023-04-08T03:47:12;11.07;;;9.18;;
6531;SDS011;3299;42.004;24.868;2023-04-08T03:49:37;11.70;;;9.43;;
6531;SDS011;3299;42.004;24.868;2023-04-08T03:52:02;11.98;;;9.77;;
6531;SDS011;3299;42.004;24.868;2023-04-08T03:54:28;10.43;;;9.32;;
6531;SDS011;3299;42.004;24.868;2023-04-08T03:56:54;10.48;;;9.38;;
6531;SDS011;3299;42.004;24.868;2023-04-08T03:59:19;12.68;;;9.02;;
6531;SDS011;3299;42.004;24.868;2023-04-08T04:01:45;9.15;;;7.85;;
6531;SDS011;3299;42.004;24.868;2023-04-08T04:04:11;11.07;;;9.13;;
6531;SDS011;3299;42.004;24.868;2023-04-08T04:06:37;10.20;;;8.75;;
6531;SDS011;3299;42.004;24.868;2023-04-08T04:09:02;11.23;;;9.15;;
6531;SDS011;3299;42.004;24.868;2023-04-08T04:11:27;11.80;;;9.00;;
6531;SDS011;3299;42.004;24.868;2023-04-08T04:13:53;10.57;;;8.70;;
6531;SDS011;3299;42.004;24.868;2023-04-08T04:16:18;9.60;;;8.38;;
6531;SDS011;3299;42.004;24.868;2023-04-08T04:18:43;12.73;;;8.82;;
6531;SDS011;3299;42.004;24.868;2023-04-08T04:21:09;9.98;;;8.57;;
6531;SDS011;3299;42.004;24.868;2023-04-08T04:23:34;12.85;;;8.82;;
6531;SDS011;3299;42.004;24.868;2023-04-08T04:26:00;9.90;;;8.68;;
6531;SDS011;3299;42.004;24.868;2023-04-08T04:28:25;10.32;;;9.27;;
6531;SDS011;3299;42.004;24.868;2023-04-08T04:30:50;9.57;;;8.38;;
6531;SDS011;3299;42.004;24.868;2023-04-08T04:33:16;11.23;;;8.82;;
6531;SDS011;3299;42.004;24.868;2023-04-08T04:35:42;10.18;;;8.93;;
6531;SDS011;3299;42.004;24.868;2023-04-08T04:38:08;11.07;;;8.32;;
6531;SDS011;3299;42.004;24.868;2023-04-08T04:40:36;12.13;;;9.00;;
6531;SDS011;3299;42.004;24.868;2023-04-08T04:43:04;10.25;;;8.52;;
6531;SDS011;3299;42.004;24.868;2023-04-08T04:45:30;13.07;;;10.18;;
6531;SDS011;3299;42.004;24.868;2023-04-08T04:47:55;15.20;;;11.70;;
6531;SDS011;3299;42.004;24.868;2023-04-08T04:50:21;15.63;;;11.98;;
6531;SDS011;3299;42.004;24.868;2023-04-08T04:52:46;17.38;;;12.20;;
6531;SDS011;3299;42.004;24.868;2023-04-08T04:55:12;16.15;;;11.30;;
6531;SDS011;3299;42.004;24.868;2023-04-08T04:57:39;12.32;;;9.88;;
6531;SDS011;3299;42.004;24.868;2023-04-08T05:00:05;14.13;;;11.18;;
6531;SDS011;3299;42.004;24.868;2023-04-08T05:02:32;14.77;;;10.90;;
6531;SDS011;3299;42.004;24.868;2023-04-08T05:04:57;13.75;;;10.40;;
6531;SDS011;3299;42.004;24.868;2023-04-08T05:07:24;14.95;;;10.93;;
6531;SDS011;3299;42.004;24.868;2023-04-08T05:09:49;13.13;;;11.25;;
6531;SDS011;3299;42.004;24.868;2023-04-08T05:12:15;14.23;;;11.77;;
6531;SDS011;3299;42.004;24.868;2023-04-08T05:14:40;15.00;;;12.38;;
6531;SDS011;3299;42.004;24.868;2023-04-08T05:17:06;17.20;;;11.85;;
6531;SDS011;3299;42.004;24.868;2023-04-08T05:19:31;19.65;;;13.25;;
6531;SDS011;3299;42.004;24.868;2023-04-08T05:21:57;20.60;;;15.00;;
6531;SDS011;3299;42.004;24.868;2023-04-08T05:24:22;30.23;;;17.48;;
6531;SDS011;3299;42.004;24.868;2023-04-08T05:26:48;23.95;;;18.08;;
6531;SDS011;3299;42.004;24.868;2023-04-08T05:29:16;28.17;;;20.02;;
6531;SDS011;3299;42.004;24.868;2023-04-08T05:31:42;28.33;;;19.77;;
6531;SDS011;3299;42.004;24.868;2023-04-08T05:34:08;31.20;;;21.35;;
6531;SDS011;3299;42.004;24.868;2023-04-08T05:36:35;24.40;;;18.92;;
6531;SDS011;3299;42.004;24.868;2023-04-08T05:39:00;26.02;;;18.40;;
6531;SDS011;3299;42.004;24.868;2023-04-08T05:41:26;24.35;;;17.83;;
6531;SDS011;3299;42.004;24.868;2023-04-08T05:43:51;28.27;;;18.83;;
6531;SDS011;3299;42.004;24.868;2023-04-08T05:46:16;25.88;;;18.67;;
6531;SDS011;3299;42.004;24.868;2023-04-08T05:48:42;23.90;;;17.73;;
6531;SDS011;3299;42.004;24.868;2023-04-08T05:51:12;25.38;;;17.92;;
6531;SDS011;3299;42.004;24.868;2023-04-08T05:53:38;26.67;;;17.52;;
6531;SDS011;3299;42.004;24.868;2023-04-08T05:56:03;28.25;;;18.88;;
6531;SDS011;3299;42.004;24.868;2023-04-08T05:58:29;29.27;;;18.58;;
6531;SDS011;3299;42.004;24.868;2023-04-08T06:00:54;30.90;;;19.27;;
6531;SDS011;3299;42.004;24.868;2023-04-08T06:03:20;28.55;;;20.58;;
6531;SDS011;3299;42.004;24.868;2023-04-08T06:05:46;31.55;;;20.00;;
6531;SDS011;3299;42.004;24.868;2023-04-08T06:08:11;27.13;;;19.27;;
6531;SDS011;3299;42.004;24.868;2023-04-08T06:10:38;29.08;;;19.40;;
6531;SDS011;3299;42.004;24.868;2023-04-08T06:13:03;29.85;;;19.60;;
6531;SDS011;3299;42.004;24.868;2023-04-08T06:15:28;30.10;;;20.00;;
6531;SDS011;3299;42.004;24.868;2023-04-08T06:17:54;25.25;;;18.23;;
6531;SDS011;3299;42.004;24.868;2023-04-08T06:20:20;26.55;;;20.73;;
6531;SDS011;3299;42.004;24.868;2023-04-08T06:22:45;29.60;;;19.50;;
6531;SDS011;3299;42.004;24.868;2023-04-08T06:25:10;29.63;;;22.17;;
6531;SDS011;3299;42.004;24.868;2023-04-08T06:27:36;29.25;;;21.30;;
6531;SDS011;3299;42.004;24.868;2023-04-08T06:30:01;28.63;;;20.60;;
6531;SDS011;3299;42.004;24.868;2023-04-08T06:32:27;34.05;;;21.70;;
6531;SDS011;3299;42.004;24.868;2023-04-08T06:34:52;34.53;;;22.23;;
6531;SDS011;3299;42.004;24.868;2023-04-08T06:37:18;33.35;;;21.33;;
6531;SDS011;3299;42.004;24.868;2023-04-08T06:39:43;31.92;;;22.10;;
6531;SDS011;3299;42.004;24.868;2023-04-08T06:42:08;29.73;;;21.33;;
6531;SDS011;3299;42.004;24.868;2023-04-08T06:44:34;31.25;;;21.13;;
6531;SDS011;3299;42.004;24.868;2023-04-08T06:46:59;30.42;;;21.02;;
6531;SDS011;3299;42.004;24.868;2023-04-08T06:49:25;29.23;;;21.42;;
6531;SDS011;3299;42.004;24.868;2023-04-08T06:51:51;33.83;;;21.65;;
6531;SDS011;3299;42.004;24.868;2023-04-08T06:54:17;28.85;;;21.63;;
6531;SDS011;3299;42.004;24.868;2023-04-08T06:56:42;29.88;;;20.77;;
6531;SDS011;3299;42.004;24.868;2023-04-08T06:59:07;28.83;;;21.05;;
6531;SDS011;3299;42.004;24.868;2023-04-08T07:01:33;29.23;;;20.65;;
6531;SDS011;3299;42.004;24.868;2023-04-08T07:03:58;31.75;;;21.77;;
6531;SDS011;3299;42.004;24.868;2023-04-08T07:06:26;28.58;;;21.58;;
6531;SDS011;3299;42.004;24.868;2023-04-08T07:08:51;28.50;;;21.25;;
6531;SDS011;3299;42.004;24.868;2023-04-08T07:11:16;28.35;;;20.58;;
6531;SDS011;3299;42.004;24.868;2023-04-08T07:13:42;29.50;;;20.90;;
6531;SDS011;3299;42.004;24.868;2023-04-08T07:16:07;31.60;;;21.55;;
6531;SDS011;3299;42.004;24.868;2023-04-08T07:18:33;32.60;;;23.88;;
6531;SDS011;3299;42.004;24.868;2023-04-08T07:20:58;36.90;;;25.35;;
6531;SDS011;3299;42.004;24.868;2023-04-08T07:23:25;28.75;;;21.30;;
6531;SDS011;3299;42.004;24.868;2023-04-08T07:25:50;27.52;;;20.67;;
6531;SDS011;3299;42.004;24.868;2023-04-08T07:28:16;33.20;;;23.05;;
6531;SDS011;3299;42.004;24.868;2023-04-08T07:30:42;29.42;;;20.90;;
6531;SDS011;3299;42.004;24.868;2023-04-08T07:33:07;29.20;;;20.65;;
6531;SDS011;3299;42.004;24.868;2023-04-08T07:35:32;29.08;;;21.08;;
6531;SDS011;3299;42.004;24.868;2023-04-08T07:38:00;32.47;;;20.88;;
6531;SDS011;3299;42.004;24.868;2023-04-08T07:40:26;33.33;;;22.35;;
6531;SDS011;3299;42.004;24.868;2023-04-08T07:42:51;28.17;;;22.25;;
6531;SDS011;3299;42.004;24.868;2023-04-08T07:45:17;30.13;;;21.27;;
6531;SDS011;3299;42.004;24.868;2023-04-08T07:47:42;28.55;;;21.63;;
6531;SDS011;3299;42.004;24.868;2023-04-08T07:50:08;28.80;;;21.42;;
6531;SDS011;3299;42.004;24.868;2023-04-08T07:52:34;30.42;;;20.55;;
6531;SDS011;3299;42.004;24.868;2023-04-08T07:54:59;28.45;;;20.45;;
6531;SDS011;3299;42.004;24.868;2023-04-08T07:57:25;28.85;;;20.15;;
6531;SDS011;3299;42.004;24.868;2023-04-08T07:59:51;27.38;;;18.90;;
6531;SDS011;3299;42.004;24.868;2023-04-08T08:02:16;21.33;;;17.23;;
6531;SDS011;3299;42.004;24.868;2023-04-08T08:04:42;26.73;;;19.48;;
6531;SDS011;3299;42.004;24.868;2023-04-08T08:07:07;26.98;;;19.67;;
6531;SDS011;3299;42.004;24.868;2023-04-08T08:09:33;23.75;;;17.80;;
6531;SDS011;3299;42.004;24.868;2023-04-08T08:11:58;24.75;;;18.13;;
6531;SDS011;3299;42.004;24.868;2023-04-08T08:14:24;24.20;;;18.20;;
6531;SDS011;3299;42.004;24.868;2023-04-08T08:16:50;24.38;;;18.60;;
6531;SDS011;3299;42.004;24.868;2023-04-08T08:19:16;21.80;;;16.05;;
6531;SDS011;3299;42.004;24.868;2023-04-08T08:21:42;20.88;;;16.70;;
6531;SDS011;3299;42.004;24.868;2023-04-08T08:24:07;23.40;;;16.67;;
6531;SDS011;3299;42.004;24.868;2023-04-08T08:26:35;23.70;;;17.35;;
6531;SDS011;3299;42.004;24.868;2023-04-08T08:29:01;25.92;;;18.30;;
6531;SDS011;3299;42.004;24.868;2023-04-08T08:31:26;20.77;;;16.33;;
6531;SDS011;3299;42.004;24.868;2023-04-08T08:33:52;20.73;;;15.93;;
6531;SDS011;3299;42.004;24.868;2023-04-08T08:36:17;21.25;;;16.85;;
6531;SDS011;3299;42.004;24.868;2023-04-08T08:38:42;20.85;;;16.38;;
6531;SDS011;3299;42.004;24.868;2023-04-08T08:41:08;19.27;;;14.60;;
6531;SDS011;3299;42.004;24.868;2023-04-08T08:43:33;17.67;;;14.15;;
6531;SDS011;3299;42.004;24.868;2023-04-08T08:45:59;20.77;;;15.63;;
6531;SDS011;3299;42.004;24.868;2023-04-08T08:48:25;15.80;;;13.77;;
6531;SDS011;3299;42.004;24.868;2023-04-08T08:50:51;19.05;;;14.00;;
6531;SDS011;3299;42.004;24.868;2023-04-08T08:53:16;18.10;;;14.73;;
6531;SDS011;3299;42.004;24.868;2023-04-08T08:55:43;18.10;;;15.55;;
6531;SDS011;3299;42.004;24.868;2023-04-08T08:58:09;20.52;;;16.90;;
6531;SDS011;3299;42.004;24.868;2023-04-08T09:00:35;18.92;;;14.55;;
6531;SDS011;3299;42.004;24.868;2023-04-08T09:03:17;19.77;;;15.55;;
6531;SDS011;3299;42.004;24.868;2023-04-08T09:05:50;20.10;;;15.35;;
6531;SDS011;3299;42.004;24.868;2023-04-08T09:08:29;18.50;;;14.18;;
6531;SDS011;3299;42.004;24.868;2023-04-08T09:11:09;19.08;;;14.82;;
6531;SDS011;3299;42.004;24.868;2023-04-08T09:13:39;19.00;;;14.80;;
6531;SDS011;3299;42.004;24.868;2023-04-08T09:16:06;20.02;;;15.82;;
6531;SDS011;3299;42.004;24.868;2023-04-08T09:18:33;18.20;;;15.20;;
6531;SDS011;3299;42.004;24.868;2023-04-08T09:20:59;20.45;;;15.57;;
6531;SDS011;3299;42.004;24.868;2023-04-08T09:28:39;19.88;;;16.25;;
6531;SDS011;3299;42.004;24.868;2023-04-08T09:31:24;19.05;;;15.40;;
6531;SDS011;3299;42.004;24.868;2023-04-08T09:33:52;19.65;;;14.50;;
6531;SDS011;3299;42.004;24.868;2023-04-08T09:36:20;22.55;;;18.15;;
6531;SDS011;3299;42.004;24.868;2023-04-08T09:38:46;17.77;;;15.40;;
6531;SDS011;3299;42.004;24.868;2023-04-08T09:41:13;20.20;;;15.57;;
6531;SDS011;3299;42.004;24.868;2023-04-08T09:43:43;19.95;;;15.30;;
6531;SDS011;3299;42.004;24.868;2023-04-08T09:46:16;22.98;;;17.88;;
6531;SDS011;3299;42.004;24.868;2023-04-08T09:48:48;22.23;;;16.70;;
6531;SDS011;3299;42.004;24.868;2023-04-08T09:51:19;21.88;;;16.55;;
6531;SDS011;3299;42.004;24.868;2023-04-08T09:53:49;16.25;;;14.43;;
6531;SDS011;3299;42.004;24.868;2023-04-08T09:56:21;18.20;;;14.15;;
6531;SDS011;3299;42.004;24.868;2023-04-08T09:59:00;17.40;;;14.38;;
6531;SDS011;3299;42.004;24.868;2023-04-08T10:01:37;17.73;;;14.40;;
6531;SDS011;3299;42.004;24.868;2023-04-08T10:04:04;17.08;;;13.70;;
6531;SDS011;3299;42.004;24.868;2023-04-08T10:06:34;22.40;;;15.10;;
6531;SDS011;3299;42.004;24.868;2023-04-08T10:09:01;15.82;;;13.13;;
6531;SDS011;3299;42.004;24.868;2023-04-08T10:11:28;14.30;;;12.90;;
6531;SDS011;3299;42.004;24.868;2023-04-08T10:13:54;19.38;;;13.32;;
6531;SDS011;3299;42.004;24.868;2023-04-08T10:18:46;13.77;;;12.25;;
6531;SDS011;3299;42.004;24.868;2023-04-08T10:21:32;17.25;;;12.60;;
6531;SDS011;3299;42.004;24.868;2023-04-08T10:23:59;16.45;;;13.32;;
6531;SDS011;3299;42.004;24.868;2023-04-08T10:26:34;16.00;;;13.43;;
6531;SDS011;3299;42.004;24.868;2023-04-08T10:31:41;16.95;;;12.50;;
6531;SDS011;3299;42.004;24.868;2023-04-08T10:34:16;15.25;;;12.48;;
6531;SDS011;3299;42.004;24.868;2023-04-08T10:36:42;16.02;;;13.52;;
6531;SDS011;3299;42.004;24.868;2023-04-08T10:39:11;14.95;;;12.88;;
6531;SDS011;3299;42.004;24.868;2023-04-08T10:41:40;13.95;;;12.00;;
6531;SDS011;3299;42.004;24.868;2023-04-08T10:46:49;14.95;;;11.45;;
6531;SDS011;3299;42.004;24.868;2023-04-08T10:49:16;12.80;;;11.45;;
6531;SDS011;3299;42.004;24.868;2023-04-08T10:51:42;16.35;;;12.32;;
6531;SDS011;3299;42.004;24.868;2023-04-08T10:54:12;20.10;;;16.95;;
6531;SDS011;3299;42.004;24.868;2023-04-08T10:59:12;21.27;;;13.77;;
6531;SDS011;3299;42.004;24.868;2023-04-08T11:01:41;15.50;;;13.30;;
6531;SDS011;3299;42.004;24.868;2023-04-08T11:04:15;14.02;;;11.48;;
6531;SDS011;3299;42.004;24.868;2023-04-08T11:06:47;14.20;;;11.65;;
6531;SDS011;3299;42.004;24.868;2023-04-08T11:09:14;15.80;;;12.27;;
6531;SDS011;3299;42.004;24.868;2023-04-08T11:11:41;13.38;;;11.90;;
6531;SDS011;3299;42.004;24.868;2023-04-08T11:14:08;17.98;;;13.07;;
6531;SDS011;3299;42.004;24.868;2023-04-08T11:16:35;13.55;;;12.15;;
6531;SDS011;3299;42.004;24.868;2023-04-08T11:19:02;16.77;;;14.13;;
6531;SDS011;3299;42.004;24.868;2023-04-08T11:21:34;13.77;;;12.15;;
6531;SDS011;3299;42.004;24.868;2023-04-08T11:24:00;14.88;;;11.63;;
6531;SDS011;3299;42.004;24.868;2023-04-08T11:26:30;14.65;;;12.13;;
6531;SDS011;3299;42.004;24.868;2023-04-08T11:28:55;12.20;;;10.98;;
6531;SDS011;3299;42.004;24.868;2023-04-08T11:31:22;13.05;;;11.07;;
6531;SDS011;3299;42.004;24.868;2023-04-08T11:33:48;13.93;;;12.27;;
6531;SDS011;3299;42.004;24.868;2023-04-08T11:36:16;19.35;;;16.13;;
6531;SDS011;3299;42.004;24.868;2023-04-08T11:38:42;13.95;;;12.10;;
6531;SDS011;3299;42.004;24.868;2023-04-08T11:41:07;14.73;;;12.13;;
6531;SDS011;3299;42.004;24.868;2023-04-08T11:43:33;12.23;;;10.75;;
6531;SDS011;3299;42.004;24.868;2023-04-08T11:46:07;13.57;;;11.55;;
6531;SDS011;3299;42.004;24.868;2023-04-08T11:48:33;11.63;;;10.48;;
6531;SDS011;3299;42.004;24.868;2023-04-08T11:51:02;12.70;;;11.27;;
6531;SDS011;3299;42.004;24.868;2023-04-08T11:53:28;12.52;;;10.48;;
6531;SDS011;3299;42.004;24.868;2023-04-08T11:55:54;11.35;;;10.15;;
6531;SDS011;3299;42.004;24.868;2023-04-08T11:58:20;14.07;;;11.70;;
6531;SDS011;3299;42.004;24.868;2023-04-08T12:00:45;13.13;;;11.65;;
6531;SDS011;3299;42.004;24.868;2023-04-08T12:03:11;13.68;;;11.52;;
6531;SDS011;3299;42.004;24.868;2023-04-08T12:05:37;13.55;;;11.43;;
6531;SDS011;3299;42.004;24.868;2023-04-08T12:08:03;15.00;;;12.10;;
6531;SDS011;3299;42.004;24.868;2023-04-08T12:10:28;14.18;;;11.57;;
6531;SDS011;3299;42.004;24.868;2023-04-08T12:12:54;12.85;;;11.07;;
6531;SDS011;3299;42.004;24.868;2023-04-08T12:15:20;15.90;;;10.85;;
6531;SDS011;3299;42.004;24.868;2023-04-08T12:17:45;12.52;;;11.23;;
6531;SDS011;3299;42.004;24.868;2023-04-08T12:20:11;11.57;;;10.48;;
6531;SDS011;3299;42.004;24.868;2023-04-08T12:22:37;13.85;;;11.57;;
6531;SDS011;3299;42.004;24.868;2023-04-08T12:25:03;16.88;;;12.75;;
6531;SDS011;3299;42.004;24.868;2023-04-08T12:27:29;13.52;;;12.07;;
6531;SDS011;3299;42.004;24.868;2023-04-08T12:29:57;13.48;;;11.13;;
6531;SDS011;3299;42.004;24.868;2023-04-08T12:32:23;11.63;;;10.43;;
6531;SDS011;3299;42.004;24.868;2023-04-08T12:34:49;15.32;;;10.80;;
6531;SDS011;3299;42.004;24.868;2023-04-08T12:37:15;12.68;;;10.40;;
6531;SDS011;3299;42.004;24.868;2023-04-08T12:39:40;15.68;;;11.60;;
6531;SDS011;3299;42.004;24.868;2023-04-08T12:42:06;11.88;;;10.43;;
6531;SDS011;3299;42.004;24.868;2023-04-08T12:44:31;14.40;;;11.43;;
6531;SDS011;3299;42.004;24.868;2023-04-08T12:46:57;11.75;;;10.55;;
6531;SDS011;3299;42.004;24.868;2023-04-08T12:49:23;14.23;;;12.05;;
6531;SDS011;3299;42.004;24.868;2023-04-08T12:51:49;12.18;;;10.90;;
6531;SDS011;3299;42.004;24.868;2023-04-08T12:54:15;13.13;;;11.38;;
6531;SDS011;3299;42.004;24.868;2023-04-08T12:56:40;12.55;;;10.50;;
6531;SDS011;3299;42.004;24.868;2023-04-08T12:59:07;12.15;;;10.57;;
6531;SDS011;3299;42.004;24.868;2023-04-08T13:01:33;11.20;;;9.90;;
6531;SDS011;3299;42.004;24.868;2023-04-08T13:03:58;10.43;;;9.43;;
6531;SDS011;3299;42.004;24.868;2023-04-08T13:06:24;10.88;;;9.82;;
6531;SDS011;3299;42.004;24.868;2023-04-08T13:08:50;12.90;;;9.88;;
6531;SDS011;3299;42.004;24.868;2023-04-08T13:11:16;29.45;;;18.52;;
6531;SDS011;3299;42.004;24.868;2023-04-08T13:13:42;17.38;;;13.30;;
6531;SDS011;3299;42.004;24.868;2023-04-08T13:16:08;14.18;;;11.43;;
6531;SDS011;3299;42.004;24.868;2023-04-08T13:18:33;14.85;;;10.43;;
6531;SDS011;3299;42.004;24.868;2023-04-08T13:20:59;10.70;;;8.77;;
6531;SDS011;3299;42.004;24.868;2023-04-08T13:23:24;9.68;;;8.68;;
6531;SDS011;3299;42.004;24.868;2023-04-08T13:25:49;12.95;;;8.82;;
6531;SDS011;3299;42.004;24.868;2023-04-08T13:28:15;9.18;;;7.57;;
6531;SDS011;3299;42.004;24.868;2023-04-08T13:30:41;8.00;;;7.20;;
6531;SDS011;3299;42.004;24.868;2023-04-08T13:33:06;10.50;;;7.20;;
6531;SDS011;3299;42.004;24.868;2023-04-08T13:35:32;9.27;;;7.03;;
6531;SDS011;3299;42.004;24.868;2023-04-08T13:37:57;8.95;;;6.90;;
6531;SDS011;3299;42.004;24.868;2023-04-08T13:40:23;7.75;;;6.38;;
6531;SDS011;3299;42.004;24.868;2023-04-08T13:42:49;7.30;;;5.65;;
6531;SDS011;3299;42.004;24.868;2023-04-08T13:45:14;6.03;;;5.50;;
6531;SDS011;3299;42.004;24.868;2023-04-08T13:47:40;6.38;;;5.53;;
6531;SDS011;3299;42.004;24.868;2023-04-08T13:50:06;6.57;;;5.90;;
6531;SDS011;3299;42.004;24.868;2023-04-08T13:52:32;7.22;;;5.78;;
6531;SDS011;3299;42.004;24.868;2023-04-08T13:54:57;5.55;;;5.10;;
6531;SDS011;3299;42.004;24.868;2023-04-08T13:57:23;4.93;;;4.45;;
6531;SDS011;3299;42.004;24.868;2023-04-08T13:59:48;7.43;;;5.45;;
6531;SDS011;3299;42.004;24.868;2023-04-08T14:02:13;7.28;;;6.07;;
6531;SDS011;3299;42.004;24.868;2023-04-08T14:04:39;6.47;;;5.88;;
6531;SDS011;3299;42.004;24.868;2023-04-08T14:07:05;6.95;;;6.38;;
6531;SDS011;3299;42.004;24.868;2023-04-08T14:09:30;7.60;;;6.82;;
6531;SDS011;3299;42.004;24.868;2023-04-08T14:11:56;8.07;;;7.18;;
6531;SDS011;3299;42.004;24.868;2023-04-08T14:14:21;17.77;;;14.00;;
6531;SDS011;3299;42.004;24.868;2023-04-08T14:16:46;8.02;;;7.13;;
6531;SDS011;3299;42.004;24.868;2023-04-08T14:19:12;8.52;;;7.70;;
6531;SDS011;3299;42.004;24.868;2023-04-08T14:21:38;6.97;;;6.28;;
6531;SDS011;3299;42.004;24.868;2023-04-08T14:24:04;6.40;;;5.88;;
6531;SDS011;3299;42.004;24.868;2023-04-08T14:26:29;8.18;;;6.70;;
6531;SDS011;3299;42.004;24.868;2023-04-08T14:28:59;9.45;;;7.90;;
6531;SDS011;3299;42.004;24.868;2023-04-08T14:31:26;8.55;;;7.70;;
6531;SDS011;3299;42.004;24.868;2023-04-08T14:33:51;8.02;;;7.28;;
6531;SDS011;3299;42.004;24.868;2023-04-08T14:36:16;6.43;;;5.93;;
6531;SDS011;3299;42.004;24.868;2023-04-08T14:38:42;7.63;;;7.03;;
6531;SDS011;3299;42.004;24.868;2023-04-08T14:41:08;6.93;;;6.22;;
6531;SDS011;3299;42.004;24.868;2023-04-08T14:43:34;13.75;;;9.63;;
6531;SDS011;3299;42.004;24.868;2023-04-08T14:45:59;28.33;;;16.83;;
6531;SDS011;3299;42.004;24.868;2023-04-08T14:48:25;10.00;;;8.45;;
6531;SDS011;3299;42.004;24.868;2023-04-08T14:50:54;7.22;;;6.53;;
6531;SDS011;3299;42.004;24.868;2023-04-08T14:53:19;6.22;;;5.72;;
6531;SDS011;3299;42.004;24.868;2023-04-08T14:55:45;5.72;;;5.32;;
6531;SDS011;3299;42.004;24.868;2023-04-08T14:58:11;5.82;;;5.32;;